sensor_id;sensor_type;location;lat;lon;timestamp;P1;durP1;ratioP1;P2;durP2;ratioP2
12880;SDS011;6508;53.786;9.996;2022-11-04T00:01:37;4.88;;;4.40;;
12880;SDS011;6508;53.786;9.996;2022-11-04T00:04:05;4.78;;;4.32;;
12880;SDS011;6508;53.786;9.996;2022-11-04T00:06:32;4.05;;;3.75;;
12880;SDS011;6508;53.786;9.996;2022-11-04T00:09:02;6.13;;;4.10;;
12880;SDS011;6508;53.786;9.996;2022-11-04T00:11:30;4.28;;;3.92;;
12880;SDS011;6508;53.786;9.996;2022-11-04T00:14:15;5.10;;;4.43;;
12880;SDS011;6508;53.786;9.996;2022-11-04T00:16:43;5.45;;;4.10;;
12880;SDS011;6508;53.786;9.996;2022-11-04T00:19:29;5.05;;;3.75;;
12880;SDS011;6508;53.786;9.996;2022-11-04T00:22:18;5.47;;;4.07;;
12880;SDS011;6508;53.786;9.996;2022-11-04T00:25:05;4.88;;;4.38;;
12880;SDS011;6508;53.786;9.996;2022-11-04T00:27:51;6.57;;;4.50;;
12880;SDS011;6508;53.786;9.996;2022-11-04T00:30:36;4.65;;;4.25;;
12880;SDS011;6508;53.786;9.996;2022-11-04T00:33:04;6.57;;;4.40;;
12880;SDS011;6508;53.786;9.996;2022-11-04T00:35:49;4.43;;;3.90;;
12880;SDS011;6508;53.786;9.996;2022-11-04T00:38:17;6.03;;;4.32;;
12880;SDS011;6508;53.786;9.996;2022-11-04T00:40:46;10.85;;;4.43;;
12880;SDS011;6508;53.786;9.996;2022-11-04T00:43:14;5.32;;;4.10;;
12880;SDS011;6508;53.786;9.996;2022-11-04T00:45:41;6.40;;;3.97;;
12880;SDS011;6508;53.786;9.996;2022-11-04T00:48:09;6.95;;;4.43;;
12880;SDS011;6508;53.786;9.996;2022-11-04T00:50:37;6.45;;;4.65;;
12880;SDS011;6508;53.786;9.996;2022-11-04T00:53:05;6.15;;;4.53;;
12880;SDS011;6508;53.786;9.996;2022-11-04T00:55:33;4.95;;;3.85;;
12880;SDS011;6508;53.786;9.996;2022-11-04T00:58:02;4.85;;;4.35;;
12880;SDS011;6508;53.786;9.996;2022-11-04T01:00:29;4.68;;;4.28;;
12880;SDS011;6508;53.786;9.996;2022-11-04T01:02:57;6.93;;;3.70;;
12880;SDS011;6508;53.786;9.996;2022-11-04T01:05:25;6.25;;;4.70;;
12880;SDS011;6508;53.786;9.996;2022-11-04T01:07:53;8.93;;;4.20;;
12880;SDS011;6508;53.786;9.996;2022-11-04T01:10:21;5.50;;;4.13;;
12880;SDS011;6508;53.786;9.996;2022-11-04T01:12:50;5.40;;;4.57;;
12880;SDS011;6508;53.786;9.996;2022-11-04T01:15:19;5.50;;;4.25;;
12880;SDS011;6508;53.786;9.996;2022-11-04T01:17:47;6.72;;;4.07;;
12880;SDS011;6508;53.786;9.996;2022-11-04T01:20:15;4.72;;;4.38;;
12880;SDS011;6508;53.786;9.996;2022-11-04T01:22:42;5.43;;;4.30;;
12880;SDS011;6508;53.786;9.996;2022-11-04T01:25:10;7.47;;;4.53;;
12880;SDS011;6508;53.786;9.996;2022-11-04T01:27:38;6.80;;;4.40;;
12880;SDS011;6508;53.786;9.996;2022-11-04T01:30:06;4.75;;;3.97;;
12880;SDS011;6508;53.786;9.996;2022-11-04T01:32:35;6.13;;;4.40;;
12880;SDS011;6508;53.786;9.996;2022-11-04T01:35:03;7.53;;;4.20;;
12880;SDS011;6508;53.786;9.996;2022-11-04T01:37:31;6.15;;;4.50;;
12880;SDS011;6508;53.786;9.996;2022-11-04T01:39:58;4.78;;;4.05;;
12880;SDS011;6508;53.786;9.996;2022-11-04T01:42:26;4.50;;;4.03;;
12880;SDS011;6508;53.786;9.996;2022-11-04T01:44:55;5.20;;;4.40;;
12880;SDS011;6508;53.786;9.996;2022-11-04T01:47:25;8.40;;;4.72;;
12880;SDS011;6508;53.786;9.996;2022-11-04T01:49:55;5.57;;;4.25;;
12880;SDS011;6508;53.786;9.996;2022-11-04T01:52:25;5.03;;;4.53;;
12880;SDS011;6508;53.786;9.996;2022-11-04T01:54:54;5.50;;;4.50;;
12880;SDS011;6508;53.786;9.996;2022-11-04T01:57:24;6.38;;;4.38;;
12880;SDS011;6508;53.786;9.996;2022-11-04T01:59:53;5.05;;;4.00;;
12880;SDS011;6508;53.786;9.996;2022-11-04T02:02:22;6.85;;;4.55;;
12880;SDS011;6508;53.786;9.996;2022-11-04T02:04:50;7.97;;;4.32;;
12880;SDS011;6508;53.786;9.996;2022-11-04T02:07:19;4.60;;;4.20;;
12880;SDS011;6508;53.786;9.996;2022-11-04T02:09:47;7.22;;;4.30;;
12880;SDS011;6508;53.786;9.996;2022-11-04T02:12:15;6.85;;;4.65;;
12880;SDS011;6508;53.786;9.996;2022-11-04T02:15:00;4.65;;;4.20;;
12880;SDS011;6508;53.786;9.996;2022-11-04T02:17:37;6.95;;;4.47;;
12880;SDS011;6508;53.786;9.996;2022-11-04T02:29:05;6.05;;;4.57;;
12880;SDS011;6508;53.786;9.996;2022-11-04T02:31:35;5.30;;;4.80;;
12880;SDS011;6508;53.786;9.996;2022-11-04T02:34:07;6.05;;;5.40;;
12880;SDS011;6508;53.786;9.996;2022-11-04T02:36:38;10.07;;;4.85;;
12880;SDS011;6508;53.786;9.996;2022-11-04T02:39:10;5.28;;;4.38;;
12880;SDS011;6508;53.786;9.996;2022-11-04T02:41:45;7.60;;;4.82;;
12880;SDS011;6508;53.786;9.996;2022-11-04T02:44:20;5.22;;;4.72;;
12880;SDS011;6508;53.786;9.996;2022-11-04T02:46:52;4.93;;;4.22;;
12880;SDS011;6508;53.786;9.996;2022-11-04T02:49:24;6.03;;;4.50;;
12880;SDS011;6508;53.786;9.996;2022-11-04T02:51:54;5.88;;;5.22;;
12880;SDS011;6508;53.786;9.996;2022-11-04T02:54:23;8.40;;;4.72;;
12880;SDS011;6508;53.786;9.996;2022-11-04T02:56:53;6.85;;;5.13;;
12880;SDS011;6508;53.786;9.996;2022-11-04T02:59:24;6.40;;;5.30;;
12880;SDS011;6508;53.786;9.996;2022-11-04T03:01:54;5.60;;;4.95;;
12880;SDS011;6508;53.786;9.996;2022-11-04T03:04:23;8.00;;;5.28;;
12880;SDS011;6508;53.786;9.996;2022-11-04T03:06:52;6.18;;;4.95;;
12880;SDS011;6508;53.786;9.996;2022-11-04T03:09:21;5.50;;;4.85;;
12880;SDS011;6508;53.786;9.996;2022-11-04T03:11:50;6.63;;;5.72;;
12880;SDS011;6508;53.786;9.996;2022-11-04T03:14:21;6.15;;;5.63;;
12880;SDS011;6508;53.786;9.996;2022-11-04T03:16:52;8.20;;;5.20;;
12880;SDS011;6508;53.786;9.996;2022-11-04T03:19:22;10.32;;;5.95;;
12880;SDS011;6508;53.786;9.996;2022-11-04T03:21:54;7.65;;;5.95;;
12880;SDS011;6508;53.786;9.996;2022-11-04T03:24:24;8.02;;;5.32;;
12880;SDS011;6508;53.786;9.996;2022-11-04T03:26:54;7.85;;;5.80;;
12880;SDS011;6508;53.786;9.996;2022-11-04T03:29:27;6.13;;;5.53;;
12880;SDS011;6508;53.786;9.996;2022-11-04T03:32:00;7.50;;;6.45;;
12880;SDS011;6508;53.786;9.996;2022-11-04T03:34:30;6.13;;;5.40;;
12880;SDS011;6508;53.786;9.996;2022-11-04T03:36:58;10.55;;;6.53;;
12880;SDS011;6508;53.786;9.996;2022-11-04T03:39:26;6.28;;;5.65;;
12880;SDS011;6508;53.786;9.996;2022-11-04T03:41:54;6.78;;;5.97;;
12880;SDS011;6508;53.786;9.996;2022-11-04T03:44:22;6.53;;;5.53;;
12880;SDS011;6508;53.786;9.996;2022-11-04T03:46:50;7.85;;;6.00;;
12880;SDS011;6508;53.786;9.996;2022-11-04T03:49:20;6.90;;;5.90;;
12880;SDS011;6508;53.786;9.996;2022-11-04T03:51:48;8.45;;;6.32;;
12880;SDS011;6508;53.786;9.996;2022-11-04T03:54:16;7.68;;;6.28;;
12880;SDS011;6508;53.786;9.996;2022-11-04T03:56:51;6.63;;;5.68;;
12880;SDS011;6508;53.786;9.996;2022-11-04T03:59:34;8.32;;;6.18;;
12880;SDS011;6508;53.786;9.996;2022-11-04T04:02:07;7.43;;;6.50;;
12880;SDS011;6508;53.786;9.996;2022-11-04T04:04:38;6.72;;;6.03;;
12880;SDS011;6508;53.786;9.996;2022-11-04T04:07:10;7.07;;;6.35;;
12880;SDS011;6508;53.786;9.996;2022-11-04T04:09:41;8.45;;;6.25;;
12880;SDS011;6508;53.786;9.996;2022-11-04T04:12:10;8.70;;;6.38;;
12880;SDS011;6508;53.786;9.996;2022-11-04T04:14:41;10.93;;;6.20;;
12880;SDS011;6508;53.786;9.996;2022-11-04T04:17:11;6.90;;;6.30;;
12880;SDS011;6508;53.786;9.996;2022-11-04T04:19:43;7.75;;;6.93;;
12880;SDS011;6508;53.786;9.996;2022-11-04T04:22:12;7.22;;;6.60;;
12880;SDS011;6508;53.786;9.996;2022-11-04T04:24:43;10.48;;;7.15;;
12880;SDS011;6508;53.786;9.996;2022-11-04T04:27:35;7.50;;;6.30;;
12880;SDS011;6508;53.786;9.996;2022-11-04T04:30:04;8.35;;;7.13;;
12880;SDS011;6508;53.786;9.996;2022-11-04T04:32:33;9.32;;;7.20;;
12880;SDS011;6508;53.786;9.996;2022-11-04T04:35:03;8.25;;;6.80;;
12880;SDS011;6508;53.786;9.996;2022-11-04T04:37:53;8.00;;;6.68;;
12880;SDS011;6508;53.786;9.996;2022-11-04T04:40:43;8.70;;;7.13;;
12880;SDS011;6508;53.786;9.996;2022-11-04T04:43:31;7.43;;;6.72;;
12880;SDS011;6508;53.786;9.996;2022-11-04T04:46:16;10.05;;;7.25;;
12880;SDS011;6508;53.786;9.996;2022-11-04T04:48:44;9.88;;;7.30;;
12880;SDS011;6508;53.786;9.996;2022-11-04T04:51:13;7.85;;;7.15;;
12880;SDS011;6508;53.786;9.996;2022-11-04T04:53:41;8.90;;;6.75;;
12880;SDS011;6508;53.786;9.996;2022-11-04T04:56:09;7.20;;;6.50;;
12880;SDS011;6508;53.786;9.996;2022-11-04T04:58:36;8.40;;;6.65;;
12880;SDS011;6508;53.786;9.996;2022-11-04T05:01:04;6.78;;;6.15;;
12880;SDS011;6508;53.786;9.996;2022-11-04T05:03:32;7.30;;;6.65;;
12880;SDS011;6508;53.786;9.996;2022-11-04T05:05:59;5.65;;;5.15;;
12880;SDS011;6508;53.786;9.996;2022-11-04T05:08:28;5.97;;;5.20;;
12880;SDS011;6508;53.786;9.996;2022-11-04T05:10:57;4.82;;;4.30;;
12880;SDS011;6508;53.786;9.996;2022-11-04T05:13:24;5.15;;;4.20;;
12880;SDS011;6508;53.786;9.996;2022-11-04T05:15:52;4.18;;;3.88;;
12880;SDS011;6508;53.786;9.996;2022-11-04T05:18:20;4.50;;;4.10;;
12880;SDS011;6508;53.786;9.996;2022-11-04T05:20:48;4.30;;;3.53;;
12880;SDS011;6508;53.786;9.996;2022-11-04T05:23:15;3.78;;;3.55;;
12880;SDS011;6508;53.786;9.996;2022-11-04T05:25:44;3.38;;;3.17;;
12880;SDS011;6508;53.786;9.996;2022-11-04T05:28:12;3.70;;;3.47;;
12880;SDS011;6508;53.786;9.996;2022-11-04T05:30:40;3.15;;;2.95;;
12880;SDS011;6508;53.786;9.996;2022-11-04T05:33:07;3.55;;;3.28;;
12880;SDS011;6508;53.786;9.996;2022-11-04T05:35:36;3.45;;;3.15;;
12880;SDS011;6508;53.786;9.996;2022-11-04T05:38:03;3.10;;;2.90;;
12880;SDS011;6508;53.786;9.996;2022-11-04T05:40:31;3.13;;;2.92;;
12880;SDS011;6508;53.786;9.996;2022-11-04T05:43:00;2.90;;;2.80;;
12880;SDS011;6508;53.786;9.996;2022-11-04T05:45:28;3.55;;;3.25;;
12880;SDS011;6508;53.786;9.996;2022-11-04T05:47:56;3.22;;;3.03;;
12880;SDS011;6508;53.786;9.996;2022-11-04T05:50:24;3.10;;;2.90;;
12880;SDS011;6508;53.786;9.996;2022-11-04T05:52:51;3.25;;;3.05;;
12880;SDS011;6508;53.786;9.996;2022-11-04T05:55:19;3.10;;;2.90;;
12880;SDS011;6508;53.786;9.996;2022-11-04T05:57:47;3.35;;;3.15;;
12880;SDS011;6508;53.786;9.996;2022-11-04T06:00:16;10.32;;;9.02;;
12880;SDS011;6508;53.786;9.996;2022-11-04T06:02:43;3.20;;;3.00;;
12880;SDS011;6508;53.786;9.996;2022-11-04T06:05:11;2.90;;;2.80;;
12880;SDS011;6508;53.786;9.996;2022-11-04T06:07:39;2.97;;;2.78;;
12880;SDS011;6508;53.786;9.996;2022-11-04T06:10:07;2.88;;;2.67;;
12880;SDS011;6508;53.786;9.996;2022-11-04T06:12:35;3.30;;;3.10;;
12880;SDS011;6508;53.786;9.996;2022-11-04T06:15:03;2.80;;;2.70;;
12880;SDS011;6508;53.786;9.996;2022-11-04T06:17:32;2.85;;;2.75;;
12880;SDS011;6508;53.786;9.996;2022-11-04T06:20:00;2.85;;;2.75;;
12880;SDS011;6508;53.786;9.996;2022-11-04T06:22:28;3.08;;;2.83;;
12880;SDS011;6508;53.786;9.996;2022-11-04T06:24:55;2.95;;;2.75;;
12880;SDS011;6508;53.786;9.996;2022-11-04T06:27:23;2.75;;;2.65;;
12880;SDS011;6508;53.786;9.996;2022-11-04T06:29:50;2.58;;;2.47;;
12880;SDS011;6508;53.786;9.996;2022-11-04T06:32:18;3.80;;;3.50;;
12880;SDS011;6508;53.786;9.996;2022-11-04T06:34:47;3.20;;;3.00;;
12880;SDS011;6508;53.786;9.996;2022-11-04T06:37:15;3.03;;;2.83;;
12880;SDS011;6508;53.786;9.996;2022-11-04T06:39:43;2.83;;;2.72;;
12880;SDS011;6508;53.786;9.996;2022-11-04T06:42:10;3.35;;;3.15;;
12880;SDS011;6508;53.786;9.996;2022-11-04T06:44:38;3.60;;;3.30;;
12880;SDS011;6508;53.786;9.996;2022-11-04T06:47:06;3.50;;;3.20;;
12880;SDS011;6508;53.786;9.996;2022-11-04T06:49:34;3.50;;;3.30;;
12880;SDS011;6508;53.786;9.996;2022-11-04T06:52:03;4.10;;;3.72;;
12880;SDS011;6508;53.786;9.996;2022-11-04T06:54:30;4.05;;;3.65;;
12880;SDS011;6508;53.786;9.996;2022-11-04T06:56:58;4.00;;;3.70;;
12880;SDS011;6508;53.786;9.996;2022-11-04T06:59:26;4.25;;;3.85;;
12880;SDS011;6508;53.786;9.996;2022-11-04T07:01:53;3.80;;;3.50;;
12880;SDS011;6508;53.786;9.996;2022-11-04T07:04:21;5.35;;;3.85;;
12880;SDS011;6508;53.786;9.996;2022-11-04T07:06:49;4.03;;;3.72;;
12880;SDS011;6508;53.786;9.996;2022-11-04T07:09:18;4.00;;;3.70;;
12880;SDS011;6508;53.786;9.996;2022-11-04T07:11:45;3.90;;;3.60;;
12880;SDS011;6508;53.786;9.996;2022-11-04T07:14:13;3.78;;;3.47;;
12880;SDS011;6508;53.786;9.996;2022-11-04T07:16:41;4.47;;;4.15;;
12880;SDS011;6508;53.786;9.996;2022-11-04T07:19:09;4.20;;;3.90;;
12880;SDS011;6508;53.786;9.996;2022-11-04T07:21:36;5.05;;;4.60;;
12880;SDS011;6508;53.786;9.996;2022-11-04T07:24:05;3.92;;;3.63;;
12880;SDS011;6508;53.786;9.996;2022-11-04T07:26:34;4.32;;;4.03;;
12880;SDS011;6508;53.786;9.996;2022-11-04T07:29:02;4.25;;;3.90;;
12880;SDS011;6508;53.786;9.996;2022-11-04T07:31:32;4.10;;;3.80;;
12880;SDS011;6508;53.786;9.996;2022-11-04T07:33:59;4.57;;;4.18;;
12880;SDS011;6508;53.786;9.996;2022-11-04T07:36:28;4.38;;;3.97;;
12880;SDS011;6508;53.786;9.996;2022-11-04T07:38:56;3.92;;;3.63;;
12880;SDS011;6508;53.786;9.996;2022-11-04T07:41:23;9.70;;;4.13;;
12880;SDS011;6508;53.786;9.996;2022-11-04T07:43:52;4.55;;;3.80;;
12880;SDS011;6508;53.786;9.996;2022-11-04T07:46:20;5.75;;;5.13;;
12880;SDS011;6508;53.786;9.996;2022-11-04T07:48:48;5.15;;;4.75;;
12880;SDS011;6508;53.786;9.996;2022-11-04T07:51:17;5.20;;;4.30;;
12880;SDS011;6508;53.786;9.996;2022-11-04T07:53:45;4.97;;;4.57;;
12880;SDS011;6508;53.786;9.996;2022-11-04T07:56:13;6.50;;;4.47;;
12880;SDS011;6508;53.786;9.996;2022-11-04T07:58:41;6.30;;;5.30;;
12880;SDS011;6508;53.786;9.996;2022-11-04T08:01:11;5.38;;;4.88;;
12880;SDS011;6508;53.786;9.996;2022-11-04T08:03:39;5.18;;;4.63;;
12880;SDS011;6508;53.786;9.996;2022-11-04T08:06:07;5.15;;;4.65;;
12880;SDS011;6508;53.786;9.996;2022-11-04T08:08:35;5.50;;;5.10;;
12880;SDS011;6508;53.786;9.996;2022-11-04T08:11:05;5.38;;;4.88;;
12880;SDS011;6508;53.786;9.996;2022-11-04T08:13:38;5.75;;;4.50;;
12880;SDS011;6508;53.786;9.996;2022-11-04T08:16:07;5.68;;;5.18;;
12880;SDS011;6508;53.786;9.996;2022-11-04T08:18:39;5.63;;;5.03;;
12880;SDS011;6508;53.786;9.996;2022-11-04T08:21:07;5.07;;;4.68;;
12880;SDS011;6508;53.786;9.996;2022-11-04T08:23:34;5.40;;;5.00;;
12880;SDS011;6508;53.786;9.996;2022-11-04T08:26:05;5.25;;;4.85;;
12880;SDS011;6508;53.786;9.996;2022-11-04T08:28:33;5.20;;;4.80;;
12880;SDS011;6508;53.786;9.996;2022-11-04T08:31:01;4.97;;;4.57;;
12880;SDS011;6508;53.786;9.996;2022-11-04T08:33:30;4.88;;;4.45;;
12880;SDS011;6508;53.786;9.996;2022-11-04T08:36:00;5.45;;;4.95;;
12880;SDS011;6508;53.786;9.996;2022-11-04T08:38:28;5.28;;;4.90;;
12880;SDS011;6508;53.786;9.996;2022-11-04T08:40:56;5.50;;;5.07;;
12880;SDS011;6508;53.786;9.996;2022-11-04T08:43:25;4.65;;;4.25;;
12880;SDS011;6508;53.786;9.996;2022-11-04T08:45:53;5.50;;;5.10;;
12880;SDS011;6508;53.786;9.996;2022-11-04T08:48:21;5.97;;;4.80;;
12880;SDS011;6508;53.786;9.996;2022-11-04T08:50:49;5.82;;;4.97;;
12880;SDS011;6508;53.786;9.996;2022-11-04T08:53:19;5.65;;;5.25;;
12880;SDS011;6508;53.786;9.996;2022-11-04T08:55:46;5.75;;;5.30;;
12880;SDS011;6508;53.786;9.996;2022-11-04T08:58:14;6.22;;;5.25;;
12880;SDS011;6508;53.786;9.996;2022-11-04T09:00:42;5.75;;;5.25;;
12880;SDS011;6508;53.786;9.996;2022-11-04T09:03:10;5.43;;;4.93;;
12880;SDS011;6508;53.786;9.996;2022-11-04T09:05:38;5.07;;;4.78;;
12880;SDS011;6508;53.786;9.996;2022-11-04T09:08:10;4.85;;;4.55;;
12880;SDS011;6508;53.786;9.996;2022-11-04T09:10:40;5.20;;;4.60;;
12880;SDS011;6508;53.786;9.996;2022-11-04T09:13:09;4.47;;;4.18;;
12880;SDS011;6508;53.786;9.996;2022-11-04T09:15:37;4.63;;;4.22;;
12880;SDS011;6508;53.786;9.996;2022-11-04T09:18:05;4.68;;;4.20;;
12880;SDS011;6508;53.786;9.996;2022-11-04T09:20:32;4.03;;;3.83;;
12880;SDS011;6508;53.786;9.996;2022-11-04T09:23:03;3.97;;;3.70;;
12880;SDS011;6508;53.786;9.996;2022-11-04T09:25:32;3.22;;;3.03;;
12880;SDS011;6508;53.786;9.996;2022-11-04T09:28:01;3.80;;;3.50;;
12880;SDS011;6508;53.786;9.996;2022-11-04T09:30:29;4.20;;;3.85;;
12880;SDS011;6508;53.786;9.996;2022-11-04T09:32:57;3.22;;;3.03;;
12880;SDS011;6508;53.786;9.996;2022-11-04T09:35:25;3.67;;;3.47;;
12880;SDS011;6508;53.786;9.996;2022-11-04T09:37:53;3.65;;;3.45;;
12880;SDS011;6508;53.786;9.996;2022-11-04T09:40:21;3.50;;;3.30;;
12880;SDS011;6508;53.786;9.996;2022-11-04T09:42:56;4.10;;;3.80;;
12880;SDS011;6508;53.786;9.996;2022-11-04T09:45:28;3.90;;;3.67;;
12880;SDS011;6508;53.786;9.996;2022-11-04T09:47:57;4.80;;;3.88;;
12880;SDS011;6508;53.786;9.996;2022-11-04T09:50:27;4.45;;;4.05;;
12880;SDS011;6508;53.786;9.996;2022-11-04T09:52:57;4.72;;;4.32;;
12880;SDS011;6508;53.786;9.996;2022-11-04T09:55:29;4.60;;;4.20;;
12880;SDS011;6508;53.786;9.996;2022-11-04T09:57:57;6.38;;;5.05;;
12880;SDS011;6508;53.786;9.996;2022-11-04T10:00:25;5.00;;;4.70;;
12880;SDS011;6508;53.786;9.996;2022-11-04T10:03:00;5.13;;;4.72;;
12880;SDS011;6508;53.786;9.996;2022-11-04T10:05:35;5.00;;;4.50;;
12880;SDS011;6508;53.786;9.996;2022-11-04T10:08:16;4.95;;;4.60;;
12880;SDS011;6508;53.786;9.996;2022-11-04T10:10:48;5.00;;;4.70;;
12880;SDS011;6508;53.786;9.996;2022-11-04T10:13:21;4.53;;;4.32;;
12880;SDS011;6508;53.786;9.996;2022-11-04T10:16:00;4.13;;;3.83;;
12880;SDS011;6508;53.786;9.996;2022-11-04T10:18:38;3.95;;;3.70;;
12880;SDS011;6508;53.786;9.996;2022-11-04T10:21:10;4.18;;;3.88;;
12880;SDS011;6508;53.786;9.996;2022-11-04T10:23:43;3.80;;;3.60;;
12880;SDS011;6508;53.786;9.996;2022-11-04T10:26:13;4.00;;;3.75;;
12880;SDS011;6508;53.786;9.996;2022-11-04T10:28:43;3.83;;;3.53;;
12880;SDS011;6508;53.786;9.996;2022-11-04T10:31:13;3.65;;;3.50;;
12880;SDS011;6508;53.786;9.996;2022-11-04T10:33:44;3.70;;;3.33;;
12880;SDS011;6508;53.786;9.996;2022-11-04T10:36:13;3.20;;;3.00;;
12880;SDS011;6508;53.786;9.996;2022-11-04T10:38:43;3.97;;;3.58;;
12880;SDS011;6508;53.786;9.996;2022-11-04T10:41:14;3.50;;;3.20;;
12880;SDS011;6508;53.786;9.996;2022-11-04T10:43:44;3.00;;;2.90;;
12880;SDS011;6508;53.786;9.996;2022-11-04T10:46:15;3.35;;;2.85;;
12880;SDS011;6508;53.786;9.996;2022-11-04T10:48:47;2.65;;;2.55;;
12880;SDS011;6508;53.786;9.996;2022-11-04T10:51:16;2.90;;;2.75;;
12880;SDS011;6508;53.786;9.996;2022-11-04T10:53:47;2.80;;;2.70;;
12880;SDS011;6508;53.786;9.996;2022-11-04T10:56:18;2.40;;;2.30;;
12880;SDS011;6508;53.786;9.996;2022-11-04T10:58:48;2.72;;;2.63;;
12880;SDS011;6508;53.786;9.996;2022-11-04T11:01:24;2.90;;;2.70;;
12880;SDS011;6508;53.786;9.996;2022-11-04T11:03:53;2.70;;;2.60;;
12880;SDS011;6508;53.786;9.996;2022-11-04T11:06:23;2.90;;;2.80;;
12880;SDS011;6508;53.786;9.996;2022-11-04T11:08:51;3.03;;;2.90;;
12880;SDS011;6508;53.786;9.996;2022-11-04T11:11:37;2.88;;;2.65;;
12880;SDS011;6508;53.786;9.996;2022-11-04T11:14:13;3.28;;;2.83;;
12880;SDS011;6508;53.786;9.996;2022-11-04T11:16:41;2.80;;;2.70;;
12880;SDS011;6508;53.786;9.996;2022-11-04T11:19:13;2.80;;;2.60;;
12880;SDS011;6508;53.786;9.996;2022-11-04T11:21:43;2.83;;;2.70;;
12880;SDS011;6508;53.786;9.996;2022-11-04T11:24:14;3.20;;;3.00;;
12880;SDS011;6508;53.786;9.996;2022-11-04T11:26:43;3.25;;;3.15;;
12880;SDS011;6508;53.786;9.996;2022-11-04T11:29:17;3.00;;;2.90;;
12880;SDS011;6508;53.786;9.996;2022-11-04T11:31:47;2.80;;;2.70;;
12880;SDS011;6508;53.786;9.996;2022-11-04T11:34:17;2.85;;;2.67;;
12880;SDS011;6508;53.786;9.996;2022-11-04T11:36:45;3.10;;;2.92;;
12880;SDS011;6508;53.786;9.996;2022-11-04T11:39:13;3.90;;;3.17;;
12880;SDS011;6508;53.786;9.996;2022-11-04T11:41:49;3.95;;;3.65;;
12880;SDS011;6508;53.786;9.996;2022-11-04T11:44:21;3.17;;;2.95;;
12880;SDS011;6508;53.786;9.996;2022-11-04T11:46:49;3.13;;;3.03;;
12880;SDS011;6508;53.786;9.996;2022-11-04T11:49:25;9.95;;;5.03;;
12880;SDS011;6508;53.786;9.996;2022-11-04T11:51:54;3.55;;;3.35;;
12880;SDS011;6508;53.786;9.996;2022-11-04T11:54:25;3.50;;;3.30;;
12880;SDS011;6508;53.786;9.996;2022-11-04T11:56:55;3.45;;;3.13;;
12880;SDS011;6508;53.786;9.996;2022-11-04T11:59:41;4.75;;;3.38;;
12880;SDS011;6508;53.786;9.996;2022-11-04T12:02:40;3.35;;;3.03;;
12880;SDS011;6508;53.786;9.996;2022-11-04T12:05:11;3.05;;;2.85;;
12880;SDS011;6508;53.786;9.996;2022-11-04T12:08:00;2.72;;;2.63;;
12880;SDS011;6508;53.786;9.996;2022-11-04T12:10:54;3.70;;;3.42;;
12880;SDS011;6508;53.786;9.996;2022-11-04T12:13:25;3.67;;;3.28;;
12880;SDS011;6508;53.786;9.996;2022-11-04T12:16:02;3.08;;;2.97;;
12880;SDS011;6508;53.786;9.996;2022-11-04T12:18:44;3.45;;;3.25;;
12880;SDS011;6508;53.786;9.996;2022-11-04T12:21:18;3.20;;;3.10;;
12880;SDS011;6508;53.786;9.996;2022-11-04T12:23:52;3.25;;;3.03;;
12880;SDS011;6508;53.786;9.996;2022-11-04T12:26:27;3.42;;;3.33;;
12880;SDS011;6508;53.786;9.996;2022-11-04T12:29:10;3.40;;;3.20;;
12880;SDS011;6508;53.786;9.996;2022-11-04T12:31:42;3.60;;;3.38;;
12880;SDS011;6508;53.786;9.996;2022-11-04T12:34:15;3.78;;;3.47;;
12880;SDS011;6508;53.786;9.996;2022-11-04T12:36:51;3.40;;;3.10;;
12880;SDS011;6508;53.786;9.996;2022-11-04T12:39:30;3.25;;;3.15;;
12880;SDS011;6508;53.786;9.996;2022-11-04T12:42:04;3.33;;;3.03;;
12880;SDS011;6508;53.786;9.996;2022-11-04T12:44:59;4.13;;;3.60;;
12880;SDS011;6508;53.786;9.996;2022-11-04T12:47:31;3.15;;;2.95;;
12880;SDS011;6508;53.786;9.996;2022-11-04T12:50:03;3.28;;;3.08;;
12880;SDS011;6508;53.786;9.996;2022-11-04T12:52:40;2.88;;;2.70;;
12880;SDS011;6508;53.786;9.996;2022-11-04T12:55:16;4.82;;;3.60;;
12880;SDS011;6508;53.786;9.996;2022-11-04T12:57:47;2.95;;;2.60;;
12880;SDS011;6508;53.786;9.996;2022-11-04T13:00:17;4.00;;;3.15;;
12880;SDS011;6508;53.786;9.996;2022-11-04T13:02:48;6.25;;;3.30;;
12880;SDS011;6508;53.786;9.996;2022-11-04T13:05:21;5.32;;;3.30;;
12880;SDS011;6508;53.786;9.996;2022-11-04T13:07:53;3.55;;;3.25;;
12880;SDS011;6508;53.786;9.996;2022-11-04T13:10:24;4.15;;;3.75;;
12880;SDS011;6508;53.786;9.996;2022-11-04T13:12:53;3.58;;;3.38;;
12880;SDS011;6508;53.786;9.996;2022-11-04T13:15:22;3.80;;;3.50;;
12880;SDS011;6508;53.786;9.996;2022-11-04T13:17:52;4.20;;;3.60;;
12880;SDS011;6508;53.786;9.996;2022-11-04T13:20:24;4.03;;;3.70;;
12880;SDS011;6508;53.786;9.996;2022-11-04T13:22:56;3.60;;;3.35;;
12880;SDS011;6508;53.786;9.996;2022-11-04T13:25:29;3.70;;;3.40;;
12880;SDS011;6508;53.786;9.996;2022-11-04T13:27:58;3.30;;;3.20;;
12880;SDS011;6508;53.786;9.996;2022-11-04T13:30:29;3.20;;;3.05;;
12880;SDS011;6508;53.786;9.996;2022-11-04T13:32:58;4.10;;;3.80;;
12880;SDS011;6508;53.786;9.996;2022-11-04T13:35:30;3.97;;;3.30;;
12880;SDS011;6508;53.786;9.996;2022-11-04T13:38:01;5.32;;;3.67;;
12880;SDS011;6508;53.786;9.996;2022-11-04T13:40:33;3.65;;;3.35;;
12880;SDS011;6508;53.786;9.996;2022-11-04T13:43:18;4.60;;;3.30;;
12880;SDS011;6508;53.786;9.996;2022-11-04T13:46:18;3.40;;;3.20;;
12880;SDS011;6508;53.786;9.996;2022-11-04T13:48:53;3.42;;;3.30;;
12880;SDS011;6508;53.786;9.996;2022-11-04T13:51:23;3.58;;;3.42;;
12880;SDS011;6508;53.786;9.996;2022-11-04T13:54:01;4.13;;;3.60;;
12880;SDS011;6508;53.786;9.996;2022-11-04T13:56:30;4.65;;;3.55;;
12880;SDS011;6508;53.786;9.996;2022-11-04T13:59:02;3.78;;;3.50;;
12880;SDS011;6508;53.786;9.996;2022-11-04T14:01:31;3.75;;;3.33;;
12880;SDS011;6508;53.786;9.996;2022-11-04T14:06:49;3.63;;;3.33;;
12880;SDS011;6508;53.786;9.996;2022-11-04T14:09:31;4.03;;;3.20;;
12880;SDS011;6508;53.786;9.996;2022-11-04T14:12:16;3.30;;;3.10;;
12880;SDS011;6508;53.786;9.996;2022-11-04T14:14:44;4.10;;;3.70;;
12880;SDS011;6508;53.786;9.996;2022-11-04T14:19:56;3.55;;;3.28;;
12880;SDS011;6508;53.786;9.996;2022-11-04T14:22:29;3.75;;;3.45;;
12880;SDS011;6508;53.786;9.996;2022-11-04T14:24:59;3.50;;;3.10;;
12880;SDS011;6508;53.786;9.996;2022-11-04T14:27:33;3.70;;;3.45;;
12880;SDS011;6508;53.786;9.996;2022-11-04T14:30:03;3.53;;;3.33;;
12880;SDS011;6508;53.786;9.996;2022-11-04T14:32:33;3.10;;;2.97;;
12880;SDS011;6508;53.786;9.996;2022-11-04T14:35:03;4.80;;;3.38;;
12880;SDS011;6508;53.786;9.996;2022-11-04T14:37:32;3.65;;;3.00;;
12880;SDS011;6508;53.786;9.996;2022-11-04T14:40:03;2.80;;;2.70;;
12880;SDS011;6508;53.786;9.996;2022-11-04T14:42:42;3.47;;;3.15;;
12880;SDS011;6508;53.786;9.996;2022-11-04T14:45:11;5.10;;;2.65;;
12880;SDS011;6508;53.786;9.996;2022-11-04T14:47:41;3.38;;;2.78;;
12880;SDS011;6508;53.786;9.996;2022-11-04T14:50:13;2.92;;;2.72;;
12880;SDS011;6508;53.786;9.996;2022-11-04T14:52:44;2.83;;;2.72;;
12880;SDS011;6508;53.786;9.996;2022-11-04T14:55:16;3.92;;;2.72;;
12880;SDS011;6508;53.786;9.996;2022-11-04T14:57:44;2.95;;;2.75;;
12880;SDS011;6508;53.786;9.996;2022-11-04T15:00:23;2.50;;;2.50;;
12880;SDS011;6508;53.786;9.996;2022-11-04T15:03:02;3.10;;;2.80;;
12880;SDS011;6508;53.786;9.996;2022-11-04T15:05:31;3.55;;;2.90;;
12880;SDS011;6508;53.786;9.996;2022-11-04T15:08:02;4.55;;;3.03;;
12880;SDS011;6508;53.786;9.996;2022-11-04T15:10:31;3.20;;;3.03;;
12880;SDS011;6508;53.786;9.996;2022-11-04T15:13:00;3.45;;;3.08;;
12880;SDS011;6508;53.786;9.996;2022-11-04T15:15:29;2.78;;;2.67;;
12880;SDS011;6508;53.786;9.996;2022-11-04T15:18:01;3.10;;;2.88;;
12880;SDS011;6508;53.786;9.996;2022-11-04T15:20:30;2.97;;;2.78;;
12880;SDS011;6508;53.786;9.996;2022-11-04T15:23:00;4.05;;;2.60;;
12880;SDS011;6508;53.786;9.996;2022-11-04T15:25:29;2.60;;;2.40;;
12880;SDS011;6508;53.786;9.996;2022-11-04T15:27:59;3.65;;;2.40;;
12880;SDS011;6508;53.786;9.996;2022-11-04T15:30:28;2.20;;;2.10;;
12880;SDS011;6508;53.786;9.996;2022-11-04T15:32:56;2.38;;;2.20;;
12880;SDS011;6508;53.786;9.996;2022-11-04T15:35:25;3.67;;;2.08;;
12880;SDS011;6508;53.786;9.996;2022-11-04T15:37:54;2.50;;;1.63;;